createdAt,value
2019-01-29T00:00:16.637Z,1.00
2019-01-29T00:02:45.062Z,1.00
2019-01-29T00:05:13.505Z,0.90
2019-01-29T00:07:41.954Z,0.90
2019-01-29T00:10:10.774Z,0.90
2019-01-29T00:12:39.458Z,0.80
2019-01-29T00:15:10.326Z,0.80
2019-01-29T00:17:38.763Z,0.80
2019-01-29T00:20:09.442Z,0.80
2019-01-29T00:22:37.893Z,0.80
2019-01-29T00:25:08.563Z,0.80
2019-01-29T00:27:37.180Z,0.80
2019-01-29T00:30:08.483Z,0.80
2019-01-29T00:32:39.153Z,0.80
2019-01-29T00:35:07.854Z,0.80
2019-01-29T00:37:36.625Z,0.80
2019-01-29T00:40:08.494Z,0.80
2019-01-29T00:42:36.953Z,0.80
2019-01-29T00:45:07.998Z,0.80
2019-01-29T00:47:36.650Z,0.80
2019-01-29T00:50:07.626Z,0.80
2019-01-29T00:52:41.877Z,0.80
2019-01-29T00:55:09.370Z,0.80
2019-01-29T00:57:37.830Z,0.80
2019-01-29T01:00:09.415Z,0.80
2019-01-29T01:02:37.878Z,0.90
2019-01-29T01:05:07.346Z,0.90
2019-01-29T01:07:36.246Z,0.90
2019-01-29T01:10:08.135Z,0.90
2019-01-29T01:12:36.900Z,0.90
2019-01-29T01:15:08.558Z,0.90
2019-01-29T01:17:37.023Z,0.90
2019-01-29T01:20:09.107Z,0.90
2019-01-29T01:22:37.554Z,1.00
2019-01-29T01:25:07.730Z,0.90
2019-01-29T01:27:36.181Z,1.00
2019-01-29T01:30:07.921Z,0.90
2019-01-29T01:32:36.453Z,0.90
2019-01-29T01:35:06.025Z,0.90
2019-01-29T01:37:34.550Z,1.00
2019-01-29T01:40:05.180Z,1.00
2019-01-29T01:42:33.729Z,1.00
2019-01-29T01:45:03.149Z,1.00
2019-01-29T01:47:32.695Z,1.00
2019-01-29T01:50:01.836Z,1.00
2019-01-29T01:52:30.273Z,1.00
2019-01-29T01:54:58.776Z,1.00
2019-01-29T01:57:27.234Z,1.00
2019-01-29T01:59:55.669Z,1.00
2019-01-29T02:02:24.436Z,1.00
2019-01-29T02:04:52.934Z,1.00
2019-01-29T02:07:21.385Z,1.00
2019-01-29T02:09:49.814Z,1.00
2019-01-29T02:12:18.280Z,1.00
2019-01-29T02:14:47.048Z,1.00
2019-01-29T02:17:15.574Z,1.00
2019-01-29T02:19:44.011Z,1.00
2019-01-29T02:22:12.485Z,1.00
2019-01-29T02:24:40.989Z,1.00
2019-01-29T02:27:09.449Z,1.00
2019-01-29T02:29:38.229Z,1.00
2019-01-29T02:32:06.679Z,1.00
2019-01-29T02:34:35.127Z,1.00
2019-01-29T02:37:03.982Z,1.00
2019-01-29T02:39:32.673Z,1.00
2019-01-29T02:42:01.355Z,1.00
2019-01-29T02:44:29.890Z,1.00
2019-01-29T02:46:58.322Z,1.00
2019-01-29T02:49:26.751Z,1.00
2019-01-29T02:51:55.229Z,1.00
2019-01-29T02:54:23.962Z,1.00
2019-01-29T02:56:52.416Z,1.00
2019-01-29T02:59:20.858Z,1.00
2019-01-29T03:01:51.470Z,1.00
2019-01-29T03:04:19.990Z,1.00
2019-01-29T03:06:48.928Z,1.00
2019-01-29T03:09:17.447Z,1.00
2019-01-29T03:11:45.893Z,1.00
2019-01-29T03:14:14.325Z,1.00
2019-01-29T03:16:43.053Z,1.00
2019-01-29T03:19:11.842Z,1.00
2019-01-29T03:21:40.278Z,1.00
2019-01-29T03:24:08.786Z,1.00
2019-01-29T03:26:37.885Z,1.00
2019-01-29T03:29:06.298Z,1.00
2019-01-29T03:31:34.936Z,1.00
2019-01-29T03:34:03.498Z,0.90
2019-01-29T03:36:31.970Z,0.90
2019-01-29T03:39:00.463Z,0.90
2019-01-29T03:41:28.899Z,0.90
2019-01-29T03:43:57.492Z,0.90
2019-01-29T03:46:25.923Z,0.90
2019-01-29T03:48:54.446Z,0.90
2019-01-29T03:51:22.885Z,0.90
2019-01-29T03:53:51.390Z,0.90
2019-01-29T03:56:19.837Z,0.90
2019-01-29T03:58:48.359Z,0.90
2019-01-29T04:01:16.805Z,0.80
2019-01-29T04:03:45.250Z,0.90
2019-01-29T04:06:14.006Z,0.90
2019-01-29T04:08:42.470Z,0.90
2019-01-29T04:11:11.037Z,0.90
2019-01-29T04:13:39.498Z,0.80
2019-01-29T04:16:08.066Z,0.90
2019-01-29T04:18:36.571Z,0.90
2019-01-29T04:21:05.091Z,0.90
2019-01-29T04:23:33.527Z,0.90
2019-01-29T04:26:02.009Z,1.00
2019-01-29T04:28:30.525Z,1.00
2019-01-29T04:30:59.055Z,1.00
2019-01-29T04:33:27.517Z,1.00
2019-01-29T04:35:56.115Z,1.00
2019-01-29T04:38:24.570Z,1.00
2019-01-29T04:40:53.174Z,1.00
2019-01-29T04:43:21.650Z,1.00
2019-01-29T04:45:50.169Z,1.00
2019-01-29T04:48:18.610Z,1.00
2019-01-29T04:50:47.066Z,1.00
2019-01-29T04:53:15.750Z,1.00
2019-01-29T04:55:44.182Z,1.00
2019-01-29T04:58:12.667Z,0.90
2019-01-29T05:00:41.398Z,1.00
2019-01-29T05:03:09.850Z,1.00
2019-01-29T05:05:38.350Z,1.00
2019-01-29T05:08:06.854Z,1.00
2019-01-29T05:10:35.320Z,1.00
2019-01-29T05:13:03.887Z,1.10
2019-01-29T05:15:32.359Z,1.10
2019-01-29T05:18:00.785Z,1.00
2019-01-29T05:20:29.217Z,1.10
2019-01-29T05:22:57.757Z,1.10
2019-01-29T05:25:26.255Z,1.10
2019-01-29T05:27:54.793Z,1.10
2019-01-29T05:30:25.018Z,1.10
2019-01-29T05:32:53.769Z,1.10
2019-01-29T05:35:22.526Z,1.10
2019-01-29T05:37:51.330Z,1.10
2019-01-29T05:40:22.295Z,1.20
2019-01-29T05:42:50.944Z,1.20
2019-01-29T05:45:21.098Z,1.10
2019-01-29T05:47:49.859Z,1.10
2019-01-29T05:50:18.721Z,1.10
2019-01-29T05:52:47.585Z,1.10
2019-01-29T05:55:18.315Z,1.10
2019-01-29T05:57:48.548Z,1.10
2019-01-29T06:00:24.284Z,1.20
2019-01-29T06:02:53.187Z,1.20
2019-01-29T06:07:55.856Z,1.20
2019-01-29T06:10:24.722Z,1.20
2019-01-29T06:12:53.325Z,1.20
2019-01-29T06:15:25.569Z,1.20
2019-01-29T06:17:54.128Z,1.20
2019-01-29T06:20:28.530Z,1.20
2019-01-29T06:22:57.884Z,1.20
2019-01-29T06:25:26.453Z,1.10
2019-01-29T06:27:55.398Z,1.20
2019-01-29T06:30:27.137Z,1.20
2019-01-29T06:32:55.641Z,1.20
2019-01-29T06:35:26.010Z,1.20
2019-01-29T06:37:55.249Z,1.20
2019-01-29T06:40:26.318Z,1.20
2019-01-29T06:42:54.902Z,1.30
2019-01-29T06:45:25.262Z,1.30
2019-01-29T06:47:54.438Z,1.30
2019-01-29T06:50:27.525Z,1.30
2019-01-29T06:52:57.383Z,1.30
2019-01-29T06:55:26.830Z,1.30
2019-01-29T06:57:56.361Z,1.10
2019-01-29T07:00:30.421Z,1.10
2019-01-29T07:03:00.715Z,1.10
2019-01-29T07:05:29.479Z,1.20
2019-01-29T07:07:58.073Z,1.20
2019-01-29T07:10:28.220Z,1.20
2019-01-29T07:12:57.614Z,1.10
2019-01-29T07:15:46.348Z,1.20
2019-01-29T07:18:17.231Z,1.10
2019-01-29T07:20:46.521Z,1.10
2019-01-29T07:23:15.117Z,1.20
2019-01-29T07:25:45.468Z,1.20
2019-01-29T07:28:13.937Z,1.20
2019-01-29T07:30:42.458Z,1.20
2019-01-29T07:33:10.898Z,1.20
2019-01-29T07:35:39.678Z,1.20
2019-01-29T07:38:08.107Z,1.10
2019-01-29T07:40:36.571Z,1.10
2019-01-29T07:43:05.002Z,1.10
2019-01-29T07:45:33.437Z,1.20
2019-01-29T07:48:02.038Z,1.30
2019-01-29T07:50:30.473Z,1.40
2019-01-29T07:52:58.999Z,1.40
2019-01-29T07:55:27.430Z,1.50
2019-01-29T07:57:55.887Z,1.60
2019-01-29T08:00:24.458Z,1.50
2019-01-29T08:02:52.982Z,1.40
2019-01-29T08:05:21.589Z,1.40
2019-01-29T08:07:50.026Z,1.50
2019-01-29T08:10:18.918Z,1.40
2019-01-29T08:12:47.642Z,1.50
2019-01-29T08:15:21.102Z,1.50
2019-01-29T08:17:49.930Z,1.50
2019-01-29T08:20:19.686Z,1.50
2019-01-29T08:22:48.175Z,1.50
2019-01-29T08:25:17.118Z,1.60
2019-01-29T08:27:45.581Z,1.60
2019-01-29T08:30:16.302Z,1.60
2019-01-29T08:32:44.735Z,1.80
2019-01-29T08:35:17.454Z,1.80
2019-01-29T08:37:46.211Z,1.80
2019-01-29T08:40:16.178Z,1.80
2019-01-29T08:42:45.093Z,1.90
2019-01-29T08:45:20.449Z,1.80
2019-01-29T08:47:49.983Z,1.90
2019-01-29T08:50:23.686Z,2.00
2019-01-29T08:52:52.614Z,2.10
2019-01-29T08:55:21.313Z,2.20
2019-01-29T08:57:49.778Z,2.50
2019-01-29T09:00:19.750Z,2.60
2019-01-29T09:02:48.262Z,2.60
2019-01-29T09:05:17.452Z,2.70
2019-01-29T09:07:45.891Z,2.80
2019-01-29T09:10:20.906Z,2.80
2019-01-29T09:12:49.482Z,3.00
2019-01-29T09:15:20.232Z,3.20
2019-01-29T09:17:49.294Z,3.10
2019-01-29T09:20:21.793Z,3.10
2019-01-29T09:22:50.383Z,3.20
2019-01-29T09:25:22.543Z,3.40
2019-01-29T09:27:50.148Z,3.60
2019-01-29T09:30:20.754Z,3.90
2019-01-29T09:32:49.416Z,4.00
2019-01-29T09:35:18.066Z,3.90
2019-01-29T09:37:46.675Z,3.90
2019-01-29T09:40:24.492Z,3.70
2019-01-29T09:42:53.282Z,3.70
2019-01-29T09:45:22.330Z,3.60
2019-01-29T09:47:50.759Z,3.60
2019-01-29T09:50:24.092Z,3.60
2019-01-29T09:52:53.519Z,3.70
2019-01-29T09:55:28.970Z,3.90
2019-01-29T09:57:53.626Z,4.00
2019-01-29T10:00:30.818Z,3.90
2019-01-29T10:02:59.397Z,4.20
2019-01-29T10:05:27.981Z,4.30
2019-01-29T10:07:56.574Z,4.50
2019-01-29T10:10:25.151Z,4.70
2019-01-29T10:12:53.666Z,5.10
2019-01-29T10:15:25.040Z,5.60
2019-01-29T10:17:53.610Z,5.40
2019-01-29T10:20:22.376Z,5.20
2019-01-29T10:22:51.013Z,5.90
2019-01-29T10:25:19.798Z,6.10
2019-01-29T10:27:48.366Z,6.40
2019-01-29T10:30:19.861Z,6.30
2019-01-29T10:32:48.758Z,6.10
2019-01-29T10:35:19.448Z,5.80
2019-01-29T10:37:47.941Z,6.30
2019-01-29T10:40:19.506Z,6.00
2019-01-29T10:42:48.386Z,5.90
2019-01-29T10:45:18.550Z,5.60
2019-01-29T10:47:46.998Z,5.90
2019-01-29T10:50:24.023Z,5.90
2019-01-29T10:52:53.223Z,5.60
2019-01-29T10:55:21.913Z,5.30
2019-01-29T10:57:50.872Z,5.30
2019-01-29T11:00:21.803Z,5.80
2019-01-29T11:02:50.454Z,6.20
2019-01-29T11:05:20.122Z,6.30
2019-01-29T11:07:48.811Z,6.20
2019-01-29T11:10:18.874Z,6.30
2019-01-29T11:12:47.612Z,6.30
2019-01-29T11:15:25.522Z,6.70
2019-01-29T11:17:54.158Z,6.90
2019-01-29T11:20:23.054Z,6.70
2019-01-29T11:22:51.617Z,6.40
2019-01-29T11:25:28.931Z,5.70
2019-01-29T11:27:57.438Z,5.60
2019-01-29T11:30:28.597Z,5.50
2019-01-29T11:32:57.283Z,4.80
2019-01-29T11:35:26.128Z,5.10
2019-01-29T11:37:54.631Z,5.00
2019-01-29T11:40:28.849Z,4.60
2019-01-29T11:42:57.355Z,5.00
2019-01-29T11:45:29.025Z,5.00
2019-01-29T11:47:57.454Z,5.50
2019-01-29T11:50:26.165Z,5.80
2019-01-29T11:52:54.694Z,5.90
2019-01-29T11:55:23.365Z,5.50
2019-01-29T11:57:51.822Z,5.60
2019-01-29T12:00:25.041Z,5.60
2019-01-29T12:02:53.870Z,6.00
2019-01-29T12:05:22.646Z,6.00
2019-01-29T12:07:51.462Z,6.30
2019-01-29T12:10:20.459Z,5.30
2019-01-29T12:12:49.437Z,5.50
2019-01-29T12:15:19.868Z,5.70
2019-01-29T12:17:48.450Z,5.60
2019-01-29T12:20:20.407Z,5.90
2019-01-29T12:22:49.010Z,6.10
2019-01-29T12:25:18.193Z,5.90
2019-01-29T12:27:47.397Z,5.30
2019-01-29T12:30:21.632Z,5.10
2019-01-29T12:32:52.466Z,5.30
2019-01-29T12:35:21.357Z,5.20
2019-01-29T12:37:50.221Z,4.00
2019-01-29T12:40:19.038Z,4.50
2019-01-29T12:42:47.517Z,4.90
2019-01-29T12:45:18.276Z,5.10
2019-01-29T12:47:47.041Z,4.80
2019-01-29T12:50:27.138Z,5.00
2019-01-29T12:52:57.674Z,4.80
2019-01-29T12:55:26.281Z,4.30
2019-01-29T12:57:54.914Z,3.70
2019-01-29T13:00:24.998Z,4.10
2019-01-29T13:02:55.423Z,4.20
2019-01-29T13:05:23.857Z,4.30
2019-01-29T13:07:52.550Z,4.50
2019-01-29T13:10:23.500Z,5.00
2019-01-29T13:12:52.354Z,5.60
2019-01-29T13:15:29.673Z,5.60
2019-01-29T13:17:59.863Z,6.20
2019-01-29T13:20:28.534Z,6.90
2019-01-29T13:22:58.450Z,7.70
2019-01-29T13:25:27.037Z,8.00
2019-01-29T13:27:55.536Z,7.40
2019-01-29T13:30:27.414Z,7.20
2019-01-29T13:32:56.178Z,6.00
2019-01-29T13:35:28.369Z,4.90
2019-01-29T13:37:56.874Z,4.70
2019-01-29T13:40:25.378Z,4.80
2019-01-29T13:42:54.118Z,5.30
2019-01-29T13:45:22.918Z,5.80
2019-01-29T13:47:51.662Z,6.30
2019-01-29T13:50:25.768Z,6.40
2019-01-29T13:52:54.275Z,6.00
2019-01-29T13:55:23.586Z,5.30
2019-01-29T13:57:54.164Z,5.20
2019-01-29T14:00:34.656Z,5.00
2019-01-29T14:03:03.510Z,5.40
2019-01-29T14:05:32.119Z,5.60
2019-01-29T14:08:00.809Z,5.30
2019-01-29T14:10:29.505Z,4.70
2019-01-29T14:12:58.247Z,4.90
2019-01-29T14:15:47.899Z,4.80
2019-01-29T14:18:16.945Z,5.00
2019-01-29T14:20:45.489Z,4.70
2019-01-29T14:23:13.936Z,4.90
2019-01-29T14:25:42.640Z,4.30
2019-01-29T14:28:11.362Z,4.00
2019-01-29T14:30:40.039Z,3.90
2019-01-29T14:33:10.281Z,3.80
2019-01-29T14:35:39.227Z,3.70
2019-01-29T14:38:13.462Z,3.80
2019-01-29T14:40:41.968Z,3.50
2019-01-29T14:43:22.020Z,3.50
2019-01-29T14:45:50.858Z,3.60
2019-01-29T14:48:19.643Z,3.60
2019-01-29T14:50:48.154Z,3.70
2019-01-29T14:53:16.646Z,3.60
2019-01-29T14:55:45.109Z,3.70
2019-01-29T14:58:13.621Z,3.80
2019-01-29T15:00:42.599Z,3.80
2019-01-29T15:03:11.443Z,3.90
2019-01-29T15:05:40.439Z,3.60
2019-01-29T15:08:08.867Z,3.60
2019-01-29T15:10:37.500Z,3.60
2019-01-29T15:13:06.715Z,3.50
2019-01-29T15:15:43.546Z,3.60
2019-01-29T15:18:14.340Z,3.50
2019-01-29T15:20:44.374Z,3.50
2019-01-29T15:23:12.902Z,3.50
2019-01-29T15:25:41.588Z,3.50
2019-01-29T15:28:10.253Z,3.40
2019-01-29T15:30:38.778Z,3.30
2019-01-29T15:33:07.487Z,3.20
2019-01-29T15:35:36.775Z,3.10
2019-01-29T15:38:05.612Z,3.00
2019-01-29T15:40:34.426Z,2.90
2019-01-29T15:43:03.007Z,2.90
2019-01-29T15:45:31.518Z,2.80
2019-01-29T15:48:00.236Z,2.70
2019-01-29T15:50:31.341Z,2.60
2019-01-29T15:53:00.057Z,2.60
2019-01-29T15:55:28.930Z,2.50
2019-01-29T15:57:57.724Z,2.30
2019-01-29T16:00:29.159Z,2.30
2019-01-29T16:02:57.977Z,2.20
2019-01-29T16:05:28.672Z,2.20
2019-01-29T16:07:57.165Z,2.10
2019-01-29T16:10:43.186Z,2.00
2019-01-29T16:13:12.122Z,2.00
2019-01-29T16:15:40.986Z,1.80
2019-01-29T16:18:09.680Z,1.80
2019-01-29T16:20:38.181Z,1.70
2019-01-29T16:23:12.133Z,1.60
2019-01-29T16:25:41.015Z,1.50
2019-01-29T16:28:09.785Z,1.40
2019-01-29T16:30:39.590Z,1.40
2019-01-29T16:33:08.330Z,1.30
2019-01-29T16:35:38.296Z,1.20
2019-01-29T16:38:08.686Z,1.20
2019-01-29T16:40:41.783Z,1.20
2019-01-29T16:43:10.231Z,1.20
2019-01-29T16:45:38.797Z,1.20
2019-01-29T16:48:09.389Z,1.10
2019-01-29T16:50:37.905Z,1.10
2019-01-29T16:53:08.007Z,1.00
2019-01-29T16:55:37.018Z,1.00
2019-01-29T16:58:06.710Z,0.90
2019-01-29T17:00:37.662Z,0.90
2019-01-29T17:03:06.634Z,0.90
2019-01-29T17:05:35.236Z,0.80
2019-01-29T17:08:04.455Z,0.80
2019-01-29T17:10:34.011Z,0.70
2019-01-29T17:13:02.519Z,0.60
2019-01-29T17:15:32.519Z,0.60
2019-01-29T17:18:01.961Z,0.60
2019-01-29T17:20:36.099Z,0.50
2019-01-29T17:23:05.870Z,0.50
2019-01-29T17:25:34.366Z,0.50
2019-01-29T17:28:02.798Z,0.50
2019-01-29T17:30:35.967Z,0.50
2019-01-29T17:33:05.336Z,0.40
2019-01-29T17:35:34.612Z,0.40
2019-01-29T17:38:03.270Z,0.30
2019-01-29T17:40:31.700Z,0.30
2019-01-29T17:43:00.399Z,0.20
2019-01-29T17:45:37.903Z,0.20
2019-01-29T17:48:06.594Z,0.20
2019-01-29T17:50:37.830Z,0.20
2019-01-29T17:53:06.342Z,0.20
2019-01-29T17:55:36.466Z,0.20
2019-01-29T17:58:05.742Z,0.20
2019-01-29T18:00:35.950Z,0.20
2019-01-29T18:03:05.744Z,0.20
2019-01-29T18:05:34.975Z,0.20
2019-01-29T18:08:04.806Z,0.20
2019-01-29T18:10:33.394Z,0.20
2019-01-29T18:13:02.016Z,0.10
2019-01-29T18:15:31.562Z,0.10
2019-01-29T18:18:00.074Z,0.10
2019-01-29T18:20:28.655Z,0.10
2019-01-29T18:22:57.193Z,0.10
2019-01-29T18:25:25.866Z,0.00
2019-01-29T18:28:00.950Z,0.00
2019-01-29T18:30:27.890Z,0.00
2019-01-29T18:32:56.395Z,0.00
2019-01-29T18:35:24.905Z,0.00
2019-01-29T18:37:53.373Z,0.00
2019-01-29T18:40:27.899Z,0.00
2019-01-29T18:42:56.431Z,0.00
2019-01-29T18:45:24.885Z,0.00
2019-01-29T18:47:53.331Z,-0.10
2019-01-29T18:50:23.326Z,-0.10
2019-01-29T18:52:51.845Z,-0.10
2019-01-29T18:55:20.370Z,-0.10
2019-01-29T18:57:49.065Z,-0.10
2019-01-29T19:00:25.583Z,-0.10
2019-01-29T19:02:54.269Z,0.00
2019-01-29T19:05:24.767Z,0.00
2019-01-29T19:07:53.644Z,0.00
2019-01-29T19:10:22.859Z,0.10
2019-01-29T19:12:51.678Z,0.10
2019-01-29T19:15:22.837Z,0.10
2019-01-29T19:17:51.347Z,0.10
2019-01-29T19:20:22.481Z,0.10
2019-01-29T19:22:51.178Z,0.10
2019-01-29T19:25:20.030Z,0.10
2019-01-29T19:27:48.607Z,0.00
2019-01-29T19:30:23.000Z,-0.10
2019-01-29T19:32:51.587Z,-0.10
2019-01-29T19:35:20.201Z,-0.10
2019-01-29T19:37:48.661Z,-0.10
2019-01-29T19:40:19.246Z,-0.10
2019-01-29T19:42:47.778Z,-0.20
2019-01-29T19:45:19.330Z,-0.20
2019-01-29T19:47:47.866Z,-0.30
2019-01-29T19:50:21.594Z,-0.30
2019-01-29T19:52:50.588Z,-0.40
2019-01-29T19:55:19.391Z,-0.40
2019-01-29T19:57:47.934Z,-0.40
2019-01-29T20:00:25.115Z,-0.50
2019-01-29T20:02:53.806Z,-0.50
2019-01-29T20:05:22.479Z,-0.50
2019-01-29T20:07:51.260Z,-0.50
2019-01-29T20:10:21.932Z,-0.50
2019-01-29T20:12:50.770Z,-0.50
2019-01-29T20:15:21.976Z,-0.50
2019-01-29T20:17:51.638Z,-0.50
2019-01-29T20:20:25.910Z,-0.50
2019-01-29T20:22:54.733Z,-0.40
2019-01-29T20:25:23.393Z,-0.40
2019-01-29T20:27:53.197Z,-0.40
2019-01-29T20:30:24.843Z,-0.50
2019-01-29T20:32:53.877Z,-0.50
2019-01-29T20:35:22.710Z,-0.50
2019-01-29T20:37:51.392Z,-0.50
2019-01-29T20:40:22.579Z,-0.40
2019-01-29T20:42:51.721Z,-0.50
2019-01-29T20:45:20.340Z,-0.50
2019-01-29T20:47:52.493Z,-0.50
2019-01-29T20:50:31.833Z,-0.60
2019-01-29T20:53:03.457Z,-0.60
2019-01-29T20:55:32.244Z,-0.50
2019-01-29T20:58:00.857Z,-0.60
2019-01-29T21:00:37.622Z,-0.60
2019-01-29T21:03:07.147Z,-0.60
2019-01-29T21:05:36.429Z,-0.60
2019-01-29T21:08:05.761Z,-0.60
2019-01-29T21:10:34.532Z,-0.60
2019-01-29T21:13:03.215Z,-0.60
2019-01-29T21:15:38.125Z,-0.70
2019-01-29T21:18:02.463Z,-0.70
2019-01-29T21:20:32.694Z,-0.70
2019-01-29T21:23:01.209Z,-0.70
2019-01-29T21:25:29.817Z,-0.80
2019-01-29T21:27:58.322Z,-0.70
2019-01-29T21:30:31.702Z,-0.80
2019-01-29T21:33:00.401Z,-0.80
2019-01-29T21:35:29.097Z,-0.90
2019-01-29T21:37:57.698Z,-0.80
2019-01-29T21:40:26.302Z,-0.80
2019-01-29T21:42:54.931Z,-0.90
2019-01-29T21:45:24.310Z,-0.90
2019-01-29T21:47:55.222Z,-0.90
2019-01-29T21:50:26.370Z,-0.90
2019-01-29T21:52:54.833Z,-0.90
2019-01-29T21:55:23.410Z,-0.90
2019-01-29T21:57:52.028Z,-0.80
2019-01-29T22:00:34.763Z,-0.90
2019-01-29T22:03:03.433Z,-0.90
2019-01-29T22:05:32.026Z,-0.90
2019-01-29T22:08:00.541Z,-0.90
2019-01-29T22:10:29.422Z,-0.90
2019-01-29T22:12:58.263Z,-1.00
2019-01-29T22:15:26.786Z,-0.90
2019-01-29T22:17:55.389Z,-0.90
2019-01-29T22:20:25.086Z,-0.90
2019-01-29T22:22:54.467Z,-1.00
2019-01-29T22:25:24.258Z,-1.00
2019-01-29T22:27:52.875Z,-1.00
2019-01-29T22:30:26.350Z,-1.10
2019-01-29T22:32:54.795Z,-1.00
2019-01-29T22:35:23.254Z,-1.00
2019-01-29T22:37:51.862Z,-1.00
2019-01-29T22:40:25.094Z,-1.10
2019-01-29T22:42:53.907Z,-1.10
2019-01-29T22:45:22.547Z,-1.00
2019-01-29T22:47:50.990Z,-1.10
2019-01-29T22:50:24.763Z,-1.10
2019-01-29T22:52:54.736Z,-1.20
2019-01-29T22:55:23.266Z,-1.30
2019-01-29T22:57:52.114Z,-1.40
2019-01-29T23:00:28.105Z,-1.40
2019-01-29T23:02:56.561Z,-1.40
2019-01-29T23:05:25.002Z,-1.40
2019-01-29T23:07:53.437Z,-1.50
2019-01-29T23:10:22.462Z,-1.40
2019-01-29T23:12:50.907Z,-1.40
2019-01-29T23:15:20.106Z,-1.40
2019-01-29T23:17:48.678Z,-1.40
2019-01-29T23:20:18.513Z,-1.40
2019-01-29T23:22:47.022Z,-1.40
2019-01-29T23:25:15.466Z,-1.50
2019-01-29T23:27:43.918Z,-1.50
2019-01-29T23:30:20.961Z,-1.50
2019-01-29T23:32:49.414Z,-1.50
2019-01-29T23:35:17.925Z,-1.50
2019-01-29T23:37:46.384Z,-1.40
2019-01-29T23:40:18.874Z,-1.40
2019-01-29T23:42:47.309Z,-1.30
2019-01-29T23:45:16.503Z,-1.30
2019-01-29T23:47:44.938Z,-1.20
2019-01-29T23:50:15.043Z,-1.30
2019-01-29T23:52:43.886Z,-1.30
2019-01-29T23:55:12.662Z,-1.20
2019-01-29T23:57:41.969Z,-1.30
